Auburn, IN (46706)

06:04 AM EDT die 23o October, anno 2014 (GMT -0400)
East Memorial Park | Change Station
CLOSE
Current Station
Personal Weather Stations
Location: Auburn, IN
Elevation: 263 m
Nearby Weather Stations
Active Advisory: Dense Fog Advisory

Elev 263 m 41.36 °N, 85.06 °W | Updated 12 seconds ago

Serena
Serena
-0.4 °C
Feels Like 0 °C
N
0.0
Ventus Variabilis Ventus from Eurus
Gusts 0.0 km/h

Hodie
High -- | Low -- °C
--% Chance of Precip.
Yesterday
High -- | Low -- °C
Precip. -- mm
8:01 AM 6:47 PM
Waning Crescent, 0% visible
Pressio 1025 hPa
Visibilitas 8.0 chiliometri
Clouds Serena
Frigus Venti 0 °C
Frigus in quo Ros apparet -2 °C
Umor 92%
Rainfall 0 mm
Snow Depth Not available.
UV 0 out of 12
Pollen .80 out of 12
Air Quality Not available.
Flu Activity Sporadic
METAR KGWB 230935Z AUTO 00000KT 5SM BR CLR 00/M01 A3026 RMK AO2

More Conditions Fewer Conditions

Pressio 1025 hPa
Visibilitas 8.0 chiliometri
Clouds Serena
Frigus Venti 0 °C
Frigus in quo Ros apparet -2 °C
Umor 92%
Rainfall 0 mm
Snow Depth Not available.
UV 0 out of 12
Pollen .80 out of 12
Air Quality Not available.
Flu Activity Sporadic
METAR KGWB 230935Z AUTO 00000KT 5SM BR CLR 00/M01 A3026 RMK AO2

More Conditions Fewer Conditions

10-Day Weather Forecast

Almanac

Astronomy

Oct. 23, 2014 Rise Set
Actual Time 8:01 AM EDT 6:47 PM EDT
Civil Twilight 7:32 AM EDT 7:15 PM EDT
Nautical Twilight 7:00 AM EDT 7:47 PM EDT
Astronomical Twilight 6:28 AM EDT 8:19 PM EDT
Moon 7:39 AM EDT 6:48 PM EDT
Length Of Visible Light 11h 42m
Length of Day
10h 46m
Tomorrow will be 2m 35s shorter.
Waning Crescent, 0% of the Moon is Illuminated
Hodie
Waning Crescent
Oct 23
New
Oct 30
First Quarter
Nov 6
Full
Nov 14
Last Quarter

Today's Extremes

State Highs State Lows

Community

WunderPhotos

Upload Photos

1,764,201 photos uploaded!

Nearby

Snow Depth

Station Depth Elevation
No new snow has been reported.

Earthquake Activity

City Distance Mag. Time & Date
No recent earthquake activity has been reported nearby.
Minimum magnitude displayed is 2.5.

Coastal Water Temperatures

Locus Calor
No Stations Reporting

Nearby Weather Stations